• Join FlightAware (Why Join?)
  • Login
  • US Flag 
04:05AM EDT


 

Airport Tracker/Info


-or-


 

Live Flight TrackerFlight Track Log ✈ FLG3740 ✈ 05-May-2013 ✈ KGRR - KCVG

Flight Track Log - Related Links

Times and Time Zones

All times are in EDT time to prevent confusion due to time zone crossing. See the FLG3740 flight status page for this flight to view local times or setup timezone preferences in your user account.

Time Position Orientation Groundspeed Altitude Reporting Facility
EDT Latitude Longitude Course Direction KTS MPH feet Rate Location/Type
06:08PM 42.8606 -85.4081 125° Southeast 222 255 5,200  Level Chicago Center
06:10PM 42.4941 -85.4318 176° South  Level Estimated
06:10PM 42.7883 -85.3989 175° South 255 293 8,200  Level Chicago Center
06:11PM 42.3975 -85.4092 166° South  Level Estimated
06:11PM 42.6986 -85.3889 175° South 267 307 11,200  Level Chicago Center
06:12PM 42.3008 -85.3867 173° South  Level Estimated
06:12PM 42.6056 -85.3789 175° South 328 377 12,400  Level Chicago Center
06:13PM 42.2075 -85.3797 177° South  Level FlightAware Approximate
06:13PM 42.5050 -85.3650 174° South 359 413 14,200  Level Chicago Center
06:14PM 42.4042 -85.3558 176° South 363 418 16,200 1,860 Climbing Chicago Center
06:15PM 42.3039 -85.3725 187° South 361 415 18,100 1,620 Climbing Chicago Center
06:16PM 42.2044 -85.3808 184° South 356 410 19,600 1,680 Climbing Chicago Center
06:17PM 42.0850 -85.3606 173° South 360 414 21,600 1,500 Climbing Chicago Center
06:18PM 41.9933 -85.3469 174° South 361 415 22,800 660 Climbing Chicago Center
06:19PM 41.8897 -85.3297 173° South 371 427 23,000 60 Climbing Chicago Center
06:20PM 41.7775 -85.3119 173° South 395 455 23,000  Level Chicago Center
06:21PM 41.6656 -85.2928 173° South 397 457 23,000  Level Chicago Center
06:22PM 41.5289 -85.2711 173° South 399 459 23,000 -540 Level Chicago Center
06:23PM 41.4181 -85.2547 174° South 398 458 22,000 -780 Descending Chicago Center
06:25PM 41.2556 -85.2286 173° South 388 447 21,000 -480 Descending Indianapolis Center
06:25PM 41.2039 -85.2214 174° South 386 444 21,000  Level Chicago Center
06:26PM 41.0989 -85.2042 173° South 381 438 21,000  Level Chicago Center
06:27PM 40.9917 -85.1869 173° South 385 443 21,000  Level Chicago Center
06:28PM 40.8833 -85.1575 168° South 394 453 21,000  Level Chicago Center
06:29PM 40.7522 -85.1203 168° South 400 460 21,000  Level Chicago Center
06:30PM 40.6544 -85.0917 167° South 399 459 21,000  Level Chicago Center
06:31PM 40.5894 -85.0736 168° South 399 459 21,000 -1,020 Level Indianapolis Center
06:32PM 40.4581 -85.0358 168° South 390 449 19,300 -1,800 Descending Indianapolis Center
06:33PM 40.3608 -85.0094 168° South 376 433 17,400 -1,860 Descending Indianapolis Center
06:34PM 40.2472 -84.9778 168° South 347 399 15,400 -1,620 Descending Indianapolis Center
06:35PM 40.1739 -84.9569 168° South 342 394 14,100 -1,620 Descending Indianapolis Center
06:36PM 40.0842 -84.9314 168° South 334 384 12,400 -1,680 Descending Indianapolis Center
06:37PM 39.9892 -84.9050 168° South 314 361 10,700 -1,200 Descending Indianapolis Center
06:38PM 39.9117 -84.8825 167° South 312 359 10,000 -420 Descending Indianapolis Center
06:39PM 39.8236 -84.8575 168° South 316 364 9,900 -60 Descending Indianapolis Center
06:40PM 39.7214 -84.8711 186° South 333 383 9,900  Level Indianapolis Center
06:41PM 39.6417 -84.9194 205° Southwest 328 377 10,000 -540 Climbing Indianapolis Center
06:42PM 39.5717 -84.9394 192° South 275 316 8,900 -1,320 Descending Indianapolis Center
06:43PM 39.5089 -84.9158 164° South 240 276 7,300 -1,500 Descending Indianapolis Center
06:45PM 39.4000 -84.8333 150° Southeast 231 266 5,000 -1,200 Descending Cincinnati TRACON
06:45PM 39.3933 -84.8281 149° Southeast 234 269 4,900  Descending Indianapolis Center
06:46PM 39.3667 -84.7833 128° Southeast 226 260 5,000 -480 Climbing Cincinnati TRACON
06:47PM 39.3167 -84.7333 142° Southeast 225 259 4,200 -960 Descending Cincinnati TRACON
06:48PM 39.2667 -84.6833 142° Southeast 213 245 3,100 -600 Descending Cincinnati TRACON
06:49PM 39.2167 -84.6833 180° South 168 193 3,000 -180 Descending Cincinnati TRACON
06:50PM 39.1667 -84.6833 180° South 155 178 2,800 -540 Descending Cincinnati TRACON
06:51PM 39.1167 -84.6833 180° South 161 185 1,900 -900 Descending Cincinnati TRACON
06:52PM 39.0833 -84.6833 180° South 136 157 1,100 -840 Descending Cincinnati TRACON